sensor_id;sensor_type;location;lat;lon;timestamp;pressure;altitude;pressure_sealevel;temperature
73937;BMP180;59249;59.736;30.568;2022-10-22T00:00:12;101420.00;;;7.10
73937;BMP180;59249;59.736;30.568;2022-10-22T00:02:43;101417.00;;;7.00
73937;BMP180;59249;59.736;30.568;2022-10-22T00:05:12;101412.00;;;7.10
73937;BMP180;59249;59.736;30.568;2022-10-22T00:07:44;101414.00;;;7.10
73937;BMP180;59249;59.736;30.568;2022-10-22T00:10:14;101416.00;;;7.10
73937;BMP180;59249;59.736;30.568;2022-10-22T00:12:45;101406.00;;;7.10
73937;BMP180;59249;59.736;30.568;2022-10-22T00:15:18;101401.00;;;7.00
73937;BMP180;59249;59.736;30.568;2022-10-22T00:17:47;101396.00;;;7.00
73937;BMP180;59249;59.736;30.568;2022-10-22T00:20:16;101400.00;;;7.00
73937;BMP180;59249;59.736;30.568;2022-10-22T00:22:45;101402.00;;;7.00
73937;BMP180;59249;59.736;30.568;2022-10-22T00:25:14;101393.00;;;6.90
73937;BMP180;59249;59.736;30.568;2022-10-22T00:27:44;101390.00;;;6.90
73937;BMP180;59249;59.736;30.568;2022-10-22T00:30:14;101392.00;;;7.00
73937;BMP180;59249;59.736;30.568;2022-10-22T00:32:45;101390.00;;;6.90
73937;BMP180;59249;59.736;30.568;2022-10-22T00:35:14;101394.00;;;7.00
73937;BMP180;59249;59.736;30.568;2022-10-22T00:37:43;101392.00;;;6.90
73937;BMP180;59249;59.736;30.568;2022-10-22T00:40:12;101386.00;;;7.00
73937;BMP180;59249;59.736;30.568;2022-10-22T00:42:41;101385.00;;;6.90
73937;BMP180;59249;59.736;30.568;2022-10-22T00:45:18;101385.00;;;6.90
73937;BMP180;59249;59.736;30.568;2022-10-22T00:47:54;101384.00;;;7.00
73937;BMP180;59249;59.736;30.568;2022-10-22T00:50:28;101384.00;;;6.90
73937;BMP180;59249;59.736;30.568;2022-10-22T00:53:04;101385.00;;;6.90
73937;BMP180;59249;59.736;30.568;2022-10-22T00:55:36;101387.00;;;7.00
73937;BMP180;59249;59.736;30.568;2022-10-22T00:58:11;101385.00;;;6.90
73937;BMP180;59249;59.736;30.568;2022-10-22T01:00:42;101378.00;;;6.80
73937;BMP180;59249;59.736;30.568;2022-10-22T01:03:12;101380.00;;;6.90
73937;BMP180;59249;59.736;30.568;2022-10-22T01:05:44;101375.00;;;6.90
73937;BMP180;59249;59.736;30.568;2022-10-22T01:08:24;101373.00;;;6.90
73937;BMP180;59249;59.736;30.568;2022-10-22T01:11:05;101385.00;;;6.90
73937;BMP180;59249;59.736;30.568;2022-10-22T01:13:48;101381.00;;;6.90
73937;BMP180;59249;59.736;30.568;2022-10-22T01:16:29;101390.00;;;6.90
73937;BMP180;59249;59.736;30.568;2022-10-22T01:19:19;101383.00;;;6.90
73937;BMP180;59249;59.736;30.568;2022-10-22T01:21:59;101389.00;;;6.90
73937;BMP180;59249;59.736;30.568;2022-10-22T01:24:44;101389.00;;;6.80
73937;BMP180;59249;59.736;30.568;2022-10-22T01:27:29;101377.00;;;6.80
73937;BMP180;59249;59.736;30.568;2022-10-22T01:30:10;101384.00;;;6.70
73937;BMP180;59249;59.736;30.568;2022-10-22T01:32:44;101387.00;;;6.80
73937;BMP180;59249;59.736;30.568;2022-10-22T01:35:19;101396.00;;;6.80
73937;BMP180;59249;59.736;30.568;2022-10-22T01:37:55;101390.00;;;6.80
73937;BMP180;59249;59.736;30.568;2022-10-22T01:40:26;101391.00;;;6.80
73937;BMP180;59249;59.736;30.568;2022-10-22T01:42:57;101386.00;;;6.80
73937;BMP180;59249;59.736;30.568;2022-10-22T01:45:32;101380.00;;;6.70
73937;BMP180;59249;59.736;30.568;2022-10-22T01:48:12;101385.00;;;6.70
73937;BMP180;59249;59.736;30.568;2022-10-22T01:51:13;101381.00;;;6.70
73937;BMP180;59249;59.736;30.568;2022-10-22T01:54:01;101380.00;;;6.70
73937;BMP180;59249;59.736;30.568;2022-10-22T01:56:49;101377.00;;;6.70
73937;BMP180;59249;59.736;30.568;2022-10-22T01:59:32;101385.00;;;6.70
73937;BMP180;59249;59.736;30.568;2022-10-22T02:02:15;101385.00;;;6.70
73937;BMP180;59249;59.736;30.568;2022-10-22T02:04:57;101376.00;;;6.70
73937;BMP180;59249;59.736;30.568;2022-10-22T02:07:32;101382.00;;;6.70
73937;BMP180;59249;59.736;30.568;2022-10-22T02:10:07;101377.00;;;6.70
73937;BMP180;59249;59.736;30.568;2022-10-22T02:12:39;101375.00;;;6.60
73937;BMP180;59249;59.736;30.568;2022-10-22T02:15:32;101373.00;;;6.70
73937;BMP180;59249;59.736;30.568;2022-10-22T02:18:05;101373.00;;;6.70
73937;BMP180;59249;59.736;30.568;2022-10-22T02:20:37;101375.00;;;6.80
73937;BMP180;59249;59.736;30.568;2022-10-22T02:23:10;101368.00;;;6.80
73937;BMP180;59249;59.736;30.568;2022-10-22T02:25:41;101368.00;;;6.70
73937;BMP180;59249;59.736;30.568;2022-10-22T02:28:18;101364.00;;;6.80
73937;BMP180;59249;59.736;30.568;2022-10-22T02:30:56;101369.00;;;6.90
73937;BMP180;59249;59.736;30.568;2022-10-22T02:33:34;101366.00;;;6.80
73937;BMP180;59249;59.736;30.568;2022-10-22T02:36:06;101368.00;;;6.80
73937;BMP180;59249;59.736;30.568;2022-10-22T02:38:37;101364.00;;;6.80
73937;BMP180;59249;59.736;30.568;2022-10-22T02:41:07;101368.00;;;6.80
73937;BMP180;59249;59.736;30.568;2022-10-22T02:43:41;101366.00;;;6.80
73937;BMP180;59249;59.736;30.568;2022-10-22T02:46:10;101369.00;;;6.80
73937;BMP180;59249;59.736;30.568;2022-10-22T02:48:41;101371.00;;;6.80
73937;BMP180;59249;59.736;30.568;2022-10-22T02:51:10;101364.00;;;6.80
73937;BMP180;59249;59.736;30.568;2022-10-22T02:53:38;101365.00;;;6.80
73937;BMP180;59249;59.736;30.568;2022-10-22T02:56:07;101363.00;;;6.80
73937;BMP180;59249;59.736;30.568;2022-10-22T02:58:36;101360.00;;;6.80
73937;BMP180;59249;59.736;30.568;2022-10-22T03:01:05;101366.00;;;6.80
73937;BMP180;59249;59.736;30.568;2022-10-22T03:03:38;101370.00;;;6.70
73937;BMP180;59249;59.736;30.568;2022-10-22T03:06:08;101360.00;;;6.80
73937;BMP180;59249;59.736;30.568;2022-10-22T03:08:37;101368.00;;;6.80
73937;BMP180;59249;59.736;30.568;2022-10-22T03:11:06;101361.00;;;6.70
73937;BMP180;59249;59.736;30.568;2022-10-22T03:13:35;101359.00;;;6.70
73937;BMP180;59249;59.736;30.568;2022-10-22T03:16:04;101355.00;;;6.60
73937;BMP180;59249;59.736;30.568;2022-10-22T03:18:34;101348.00;;;6.60
73937;BMP180;59249;59.736;30.568;2022-10-22T03:21:08;101348.00;;;6.60
73937;BMP180;59249;59.736;30.568;2022-10-22T03:23:41;101340.00;;;6.60
73937;BMP180;59249;59.736;30.568;2022-10-22T03:26:12;101340.00;;;6.60
73937;BMP180;59249;59.736;30.568;2022-10-22T03:28:42;101344.00;;;6.50
73937;BMP180;59249;59.736;30.568;2022-10-22T03:31:12;101341.00;;;6.50
73937;BMP180;59249;59.736;30.568;2022-10-22T03:33:41;101340.00;;;6.50
73937;BMP180;59249;59.736;30.568;2022-10-22T03:36:11;101346.00;;;6.60
73937;BMP180;59249;59.736;30.568;2022-10-22T03:38:40;101344.00;;;6.60
73937;BMP180;59249;59.736;30.568;2022-10-22T03:41:09;101341.00;;;6.60
73937;BMP180;59249;59.736;30.568;2022-10-22T03:43:38;101342.00;;;6.60
73937;BMP180;59249;59.736;30.568;2022-10-22T03:46:08;101336.00;;;6.50
73937;BMP180;59249;59.736;30.568;2022-10-22T03:48:36;101332.00;;;6.60
73937;BMP180;59249;59.736;30.568;2022-10-22T03:51:06;101339.00;;;6.60
73937;BMP180;59249;59.736;30.568;2022-10-22T03:53:36;101340.00;;;6.60
73937;BMP180;59249;59.736;30.568;2022-10-22T03:56:07;101347.00;;;6.60
73937;BMP180;59249;59.736;30.568;2022-10-22T03:58:38;101338.00;;;6.50
73937;BMP180;59249;59.736;30.568;2022-10-22T04:01:10;101337.00;;;6.60
73937;BMP180;59249;59.736;30.568;2022-10-22T04:03:40;101341.00;;;6.60
73937;BMP180;59249;59.736;30.568;2022-10-22T04:06:10;101343.00;;;6.50
73937;BMP180;59249;59.736;30.568;2022-10-22T04:08:42;101331.00;;;6.50
73937;BMP180;59249;59.736;30.568;2022-10-22T04:11:12;101329.00;;;6.50
73937;BMP180;59249;59.736;30.568;2022-10-22T04:13:42;101333.00;;;6.50
73937;BMP180;59249;59.736;30.568;2022-10-22T04:16:14;101330.00;;;6.50
73937;BMP180;59249;59.736;30.568;2022-10-22T04:18:46;101325.00;;;6.50
73937;BMP180;59249;59.736;30.568;2022-10-22T04:21:17;101320.00;;;6.40
73937;BMP180;59249;59.736;30.568;2022-10-22T04:23:50;101332.00;;;6.40
73937;BMP180;59249;59.736;30.568;2022-10-22T04:26:20;101331.00;;;6.50
73937;BMP180;59249;59.736;30.568;2022-10-22T04:28:50;101318.00;;;6.50
73937;BMP180;59249;59.736;30.568;2022-10-22T04:31:21;101327.00;;;6.40
73937;BMP180;59249;59.736;30.568;2022-10-22T04:33:52;101332.00;;;6.40
73937;BMP180;59249;59.736;30.568;2022-10-22T04:36:23;101338.00;;;6.50
73937;BMP180;59249;59.736;30.568;2022-10-22T04:38:55;101328.00;;;6.40
73937;BMP180;59249;59.736;30.568;2022-10-22T04:41:26;101333.00;;;6.50
73937;BMP180;59249;59.736;30.568;2022-10-22T04:43:57;101326.00;;;6.50
73937;BMP180;59249;59.736;30.568;2022-10-22T04:46:28;101333.00;;;6.50
73937;BMP180;59249;59.736;30.568;2022-10-22T04:48:58;101333.00;;;6.40
73937;BMP180;59249;59.736;30.568;2022-10-22T04:51:29;101337.00;;;6.40
73937;BMP180;59249;59.736;30.568;2022-10-22T04:54:00;101336.00;;;6.40
73937;BMP180;59249;59.736;30.568;2022-10-22T04:56:30;101328.00;;;6.40
73937;BMP180;59249;59.736;30.568;2022-10-22T04:59:01;101324.00;;;6.50
73937;BMP180;59249;59.736;30.568;2022-10-22T05:01:33;101331.00;;;6.50
73937;BMP180;59249;59.736;30.568;2022-10-22T05:04:11;101328.00;;;6.50
73937;BMP180;59249;59.736;30.568;2022-10-22T05:06:41;101319.00;;;6.60
73937;BMP180;59249;59.736;30.568;2022-10-22T05:09:14;101320.00;;;6.50
73937;BMP180;59249;59.736;30.568;2022-10-22T05:11:46;101314.00;;;6.60
73937;BMP180;59249;59.736;30.568;2022-10-22T05:14:18;101315.00;;;6.70
73937;BMP180;59249;59.736;30.568;2022-10-22T05:16:48;101306.00;;;6.60
73937;BMP180;59249;59.736;30.568;2022-10-22T05:19:19;101306.00;;;6.60
73937;BMP180;59249;59.736;30.568;2022-10-22T05:21:50;101302.00;;;6.60
73937;BMP180;59249;59.736;30.568;2022-10-22T05:24:20;101304.00;;;6.70
73937;BMP180;59249;59.736;30.568;2022-10-22T05:26:49;101310.00;;;6.70
73937;BMP180;59249;59.736;30.568;2022-10-22T05:29:19;101316.00;;;6.70
73937;BMP180;59249;59.736;30.568;2022-10-22T05:31:48;101313.00;;;6.70
73937;BMP180;59249;59.736;30.568;2022-10-22T05:34:18;101317.00;;;6.80
73937;BMP180;59249;59.736;30.568;2022-10-22T05:36:47;101316.00;;;6.80
73937;BMP180;59249;59.736;30.568;2022-10-22T05:39:15;101323.00;;;6.80
73937;BMP180;59249;59.736;30.568;2022-10-22T05:41:46;101326.00;;;6.80
73937;BMP180;59249;59.736;30.568;2022-10-22T05:44:14;101320.00;;;6.80
73937;BMP180;59249;59.736;30.568;2022-10-22T05:46:43;101324.00;;;6.80
73937;BMP180;59249;59.736;30.568;2022-10-22T05:49:14;101318.00;;;6.80
73937;BMP180;59249;59.736;30.568;2022-10-22T05:51:42;101321.00;;;6.80
73937;BMP180;59249;59.736;30.568;2022-10-22T05:54:16;101322.00;;;6.80
73937;BMP180;59249;59.736;30.568;2022-10-22T05:56:48;101324.00;;;6.80
73937;BMP180;59249;59.736;30.568;2022-10-22T05:59:17;101324.00;;;6.80
73937;BMP180;59249;59.736;30.568;2022-10-22T06:01:45;101318.00;;;6.70
73937;BMP180;59249;59.736;30.568;2022-10-22T06:04:14;101319.00;;;6.80
73937;BMP180;59249;59.736;30.568;2022-10-22T06:06:44;101320.00;;;6.80
73937;BMP180;59249;59.736;30.568;2022-10-22T06:09:17;101306.00;;;6.80
73937;BMP180;59249;59.736;30.568;2022-10-22T06:11:52;101320.00;;;6.80
73937;BMP180;59249;59.736;30.568;2022-10-22T06:14:24;101316.00;;;6.90
73937;BMP180;59249;59.736;30.568;2022-10-22T06:16:53;101322.00;;;6.90
73937;BMP180;59249;59.736;30.568;2022-10-22T06:19:23;101324.00;;;7.00
73937;BMP180;59249;59.736;30.568;2022-10-22T06:21:54;101314.00;;;7.00
73937;BMP180;59249;59.736;30.568;2022-10-22T06:24:24;101315.00;;;7.00
73937;BMP180;59249;59.736;30.568;2022-10-22T06:26:54;101316.00;;;7.00
73937;BMP180;59249;59.736;30.568;2022-10-22T06:29:24;101320.00;;;7.10
73937;BMP180;59249;59.736;30.568;2022-10-22T06:32:00;101323.00;;;7.10
73937;BMP180;59249;59.736;30.568;2022-10-22T06:34:29;101331.00;;;7.10
73937;BMP180;59249;59.736;30.568;2022-10-22T06:37:01;101330.00;;;7.10
73937;BMP180;59249;59.736;30.568;2022-10-22T06:39:37;101326.00;;;7.20
73937;BMP180;59249;59.736;30.568;2022-10-22T06:42:10;101326.00;;;7.20
73937;BMP180;59249;59.736;30.568;2022-10-22T06:44:40;101332.00;;;7.20
73937;BMP180;59249;59.736;30.568;2022-10-22T06:47:09;101330.00;;;7.20
73937;BMP180;59249;59.736;30.568;2022-10-22T06:49:38;101331.00;;;7.30
73937;BMP180;59249;59.736;30.568;2022-10-22T06:52:08;101342.00;;;7.40
73937;BMP180;59249;59.736;30.568;2022-10-22T06:54:40;101337.00;;;7.40
73937;BMP180;59249;59.736;30.568;2022-10-22T06:57:11;101335.00;;;7.40
73937;BMP180;59249;59.736;30.568;2022-10-22T06:59:39;101341.00;;;7.40
73937;BMP180;59249;59.736;30.568;2022-10-22T07:02:08;101337.00;;;7.40
73937;BMP180;59249;59.736;30.568;2022-10-22T07:04:37;101332.00;;;7.30
73937;BMP180;59249;59.736;30.568;2022-10-22T07:07:06;101334.00;;;7.40
73937;BMP180;59249;59.736;30.568;2022-10-22T07:09:35;101333.00;;;7.40
73937;BMP180;59249;59.736;30.568;2022-10-22T07:12:05;101327.00;;;7.30
73937;BMP180;59249;59.736;30.568;2022-10-22T07:14:36;101324.00;;;7.50
73937;BMP180;59249;59.736;30.568;2022-10-22T07:17:04;101328.00;;;7.50
73937;BMP180;59249;59.736;30.568;2022-10-22T07:19:33;101339.00;;;7.50
73937;BMP180;59249;59.736;30.568;2022-10-22T07:22:02;101338.00;;;7.60
73937;BMP180;59249;59.736;30.568;2022-10-22T07:24:31;101336.00;;;7.60
73937;BMP180;59249;59.736;30.568;2022-10-22T07:27:00;101336.00;;;7.70
73937;BMP180;59249;59.736;30.568;2022-10-22T07:29:37;101331.00;;;7.70
73937;BMP180;59249;59.736;30.568;2022-10-22T07:32:10;101336.00;;;7.60
73937;BMP180;59249;59.736;30.568;2022-10-22T07:34:39;101332.00;;;7.70
73937;BMP180;59249;59.736;30.568;2022-10-22T07:37:10;101335.00;;;7.70
73937;BMP180;59249;59.736;30.568;2022-10-22T07:39:38;101330.00;;;7.70
73937;BMP180;59249;59.736;30.568;2022-10-22T07:42:07;101331.00;;;7.90
73937;BMP180;59249;59.736;30.568;2022-10-22T07:44:40;101335.00;;;7.80
73937;BMP180;59249;59.736;30.568;2022-10-22T07:47:09;101336.00;;;7.90
73937;BMP180;59249;59.736;30.568;2022-10-22T07:49:37;101338.00;;;8.00
73937;BMP180;59249;59.736;30.568;2022-10-22T07:52:06;101344.00;;;8.00
73937;BMP180;59249;59.736;30.568;2022-10-22T07:54:35;101336.00;;;8.10
73937;BMP180;59249;59.736;30.568;2022-10-22T07:57:04;101341.00;;;8.20
73937;BMP180;59249;59.736;30.568;2022-10-22T07:59:33;101336.00;;;8.30
73937;BMP180;59249;59.736;30.568;2022-10-22T08:02:03;101345.00;;;8.40
73937;BMP180;59249;59.736;30.568;2022-10-22T08:04:32;101342.00;;;8.50
73937;BMP180;59249;59.736;30.568;2022-10-22T08:07:01;101343.00;;;8.50
73937;BMP180;59249;59.736;30.568;2022-10-22T08:09:29;101334.00;;;8.40
73937;BMP180;59249;59.736;30.568;2022-10-22T08:11:59;101333.00;;;8.40
73937;BMP180;59249;59.736;30.568;2022-10-22T08:14:27;101329.00;;;8.40
73937;BMP180;59249;59.736;30.568;2022-10-22T08:16:57;101334.00;;;8.40
73937;BMP180;59249;59.736;30.568;2022-10-22T08:19:27;101332.00;;;8.40
73937;BMP180;59249;59.736;30.568;2022-10-22T08:21:58;101330.00;;;8.50
73937;BMP180;59249;59.736;30.568;2022-10-22T08:24:27;101332.00;;;8.40
73937;BMP180;59249;59.736;30.568;2022-10-22T08:26:56;101338.00;;;8.40
73937;BMP180;59249;59.736;30.568;2022-10-22T08:29:25;101328.00;;;8.50
73937;BMP180;59249;59.736;30.568;2022-10-22T08:31:54;101327.00;;;8.50
73937;BMP180;59249;59.736;30.568;2022-10-22T08:34:22;101326.00;;;8.50
73937;BMP180;59249;59.736;30.568;2022-10-22T08:36:52;101323.00;;;8.60
73937;BMP180;59249;59.736;30.568;2022-10-22T08:39:21;101325.00;;;8.70
73937;BMP180;59249;59.736;30.568;2022-10-22T08:41:58;101322.00;;;8.60
73937;BMP180;59249;59.736;30.568;2022-10-22T08:45:00;101316.00;;;8.80
73937;BMP180;59249;59.736;30.568;2022-10-22T08:47:47;101322.00;;;8.80
73937;BMP180;59249;59.736;30.568;2022-10-22T08:50:34;101321.00;;;8.90
73937;BMP180;59249;59.736;30.568;2022-10-22T08:53:11;101326.00;;;9.00
73937;BMP180;59249;59.736;30.568;2022-10-22T08:55:43;101327.00;;;9.00
73937;BMP180;59249;59.736;30.568;2022-10-22T08:58:18;101321.00;;;9.00
73937;BMP180;59249;59.736;30.568;2022-10-22T09:00:59;101316.00;;;9.10
73937;BMP180;59249;59.736;30.568;2022-10-22T09:03:36;101322.00;;;9.10
73937;BMP180;59249;59.736;30.568;2022-10-22T09:06:13;101317.00;;;9.10
73937;BMP180;59249;59.736;30.568;2022-10-22T09:08:52;101316.00;;;9.10
73937;BMP180;59249;59.736;30.568;2022-10-22T09:11:26;101311.00;;;9.00
73937;BMP180;59249;59.736;30.568;2022-10-22T09:13:58;101309.00;;;9.00
73937;BMP180;59249;59.736;30.568;2022-10-22T09:16:35;101304.00;;;9.00
73937;BMP180;59249;59.736;30.568;2022-10-22T09:19:17;101304.00;;;8.80
73937;BMP180;59249;59.736;30.568;2022-10-22T09:21:56;101303.00;;;9.00
73937;BMP180;59249;59.736;30.568;2022-10-22T09:24:38;101291.00;;;9.10
73937;BMP180;59249;59.736;30.568;2022-10-22T09:27:13;101286.00;;;8.90
73937;BMP180;59249;59.736;30.568;2022-10-22T09:29:45;101290.00;;;9.00
73937;BMP180;59249;59.736;30.568;2022-10-22T09:32:16;101296.00;;;9.00
73937;BMP180;59249;59.736;30.568;2022-10-22T09:34:46;101290.00;;;8.90
73937;BMP180;59249;59.736;30.568;2022-10-22T09:37:18;101288.00;;;9.00
73937;BMP180;59249;59.736;30.568;2022-10-22T09:39:55;101292.00;;;9.00
73937;BMP180;59249;59.736;30.568;2022-10-22T09:42:26;101289.00;;;9.10
73937;BMP180;59249;59.736;30.568;2022-10-22T09:44:57;101283.00;;;9.20
73937;BMP180;59249;59.736;30.568;2022-10-22T09:47:32;101282.00;;;9.10
73937;BMP180;59249;59.736;30.568;2022-10-22T09:50:26;101279.00;;;9.10
73937;BMP180;59249;59.736;30.568;2022-10-22T09:53:00;101276.00;;;9.10
73937;BMP180;59249;59.736;30.568;2022-10-22T09:55:34;101278.00;;;9.20
73937;BMP180;59249;59.736;30.568;2022-10-22T09:58:10;101269.00;;;9.20
73937;BMP180;59249;59.736;30.568;2022-10-22T10:00:44;101268.00;;;9.30
73937;BMP180;59249;59.736;30.568;2022-10-22T10:03:16;101266.00;;;9.40
73937;BMP180;59249;59.736;30.568;2022-10-22T10:05:47;101270.00;;;9.40
73937;BMP180;59249;59.736;30.568;2022-10-22T10:08:17;101264.00;;;9.30
73937;BMP180;59249;59.736;30.568;2022-10-22T10:10:51;101258.00;;;9.40
73937;BMP180;59249;59.736;30.568;2022-10-22T10:13:31;101262.00;;;9.40
73937;BMP180;59249;59.736;30.568;2022-10-22T10:16:15;101265.00;;;9.30
73937;BMP180;59249;59.736;30.568;2022-10-22T10:19:10;101262.00;;;9.40
73937;BMP180;59249;59.736;30.568;2022-10-22T10:21:54;101258.00;;;9.50
73937;BMP180;59249;59.736;30.568;2022-10-22T10:24:44;101247.00;;;9.40
73937;BMP180;59249;59.736;30.568;2022-10-22T10:27:28;101252.00;;;9.40
73937;BMP180;59249;59.736;30.568;2022-10-22T10:30:07;101247.00;;;9.50
73937;BMP180;59249;59.736;30.568;2022-10-22T10:35:52;101244.00;;;9.50
73937;BMP180;59249;59.736;30.568;2022-10-22T10:38:33;101244.00;;;9.40
73937;BMP180;59249;59.736;30.568;2022-10-22T10:41:17;101244.00;;;9.50
73937;BMP180;59249;59.736;30.568;2022-10-22T10:44:34;101234.00;;;9.50
73937;BMP180;59249;59.736;30.568;2022-10-22T10:47:20;101239.00;;;9.70
73937;BMP180;59249;59.736;30.568;2022-10-22T10:50:22;101231.00;;;9.70
73937;BMP180;59249;59.736;30.568;2022-10-22T10:53:02;101229.00;;;9.60
73937;BMP180;59249;59.736;30.568;2022-10-22T10:55:51;101234.00;;;9.70
73937;BMP180;59249;59.736;30.568;2022-10-22T10:58:33;101221.00;;;9.60
73937;BMP180;59249;59.736;30.568;2022-10-22T11:01:26;101226.00;;;9.60
73937;BMP180;59249;59.736;30.568;2022-10-22T11:04:25;101217.00;;;9.60
73937;BMP180;59249;59.736;30.568;2022-10-22T11:07:17;101215.00;;;9.60
73937;BMP180;59249;59.736;30.568;2022-10-22T11:10:07;101217.00;;;9.60
73937;BMP180;59249;59.736;30.568;2022-10-22T11:12:44;101227.00;;;9.60
73937;BMP180;59249;59.736;30.568;2022-10-22T11:15:22;101208.00;;;9.60
73937;BMP180;59249;59.736;30.568;2022-10-22T11:18:01;101223.00;;;9.60
73937;BMP180;59249;59.736;30.568;2022-10-22T11:20:43;101211.00;;;9.70
73937;BMP180;59249;59.736;30.568;2022-10-22T11:23:22;101214.00;;;9.50
73937;BMP180;59249;59.736;30.568;2022-10-22T11:25:57;101217.00;;;9.70
73937;BMP180;59249;59.736;30.568;2022-10-22T11:28:31;101211.00;;;9.60
73937;BMP180;59249;59.736;30.568;2022-10-22T11:31:08;101209.00;;;9.60
73937;BMP180;59249;59.736;30.568;2022-10-22T11:33:49;101215.00;;;9.60
73937;BMP180;59249;59.736;30.568;2022-10-22T11:36:42;101206.00;;;9.50
73937;BMP180;59249;59.736;30.568;2022-10-22T11:39:32;101206.00;;;9.30
73937;BMP180;59249;59.736;30.568;2022-10-22T11:42:08;101195.00;;;9.30
73937;BMP180;59249;59.736;30.568;2022-10-22T11:44:46;101187.00;;;9.20
73937;BMP180;59249;59.736;30.568;2022-10-22T11:47:24;101196.00;;;9.20
73937;BMP180;59249;59.736;30.568;2022-10-22T11:49:58;101189.00;;;9.30
73937;BMP180;59249;59.736;30.568;2022-10-22T11:52:54;101181.00;;;9.20
73937;BMP180;59249;59.736;30.568;2022-10-22T11:55:44;101178.00;;;9.20
73937;BMP180;59249;59.736;30.568;2022-10-22T11:58:33;101173.00;;;9.20
73937;BMP180;59249;59.736;30.568;2022-10-22T12:01:26;101179.00;;;9.20
73937;BMP180;59249;59.736;30.568;2022-10-22T12:04:16;101175.00;;;9.20
73937;BMP180;59249;59.736;30.568;2022-10-22T12:06:56;101175.00;;;9.20
73937;BMP180;59249;59.736;30.568;2022-10-22T12:09:27;101159.00;;;9.20
73937;BMP180;59249;59.736;30.568;2022-10-22T12:12:08;101165.00;;;9.10
73937;BMP180;59249;59.736;30.568;2022-10-22T12:14:52;101158.00;;;9.10
73937;BMP180;59249;59.736;30.568;2022-10-22T12:17:24;101160.00;;;9.10
73937;BMP180;59249;59.736;30.568;2022-10-22T12:20:00;101157.00;;;9.20
73937;BMP180;59249;59.736;30.568;2022-10-22T12:22:36;101151.00;;;9.10
73937;BMP180;59249;59.736;30.568;2022-10-22T12:25:15;101145.00;;;9.10
73937;BMP180;59249;59.736;30.568;2022-10-22T12:27:49;101145.00;;;9.20
73937;BMP180;59249;59.736;30.568;2022-10-22T12:30:22;101149.00;;;9.20
73937;BMP180;59249;59.736;30.568;2022-10-22T12:32:54;101140.00;;;9.20
73937;BMP180;59249;59.736;30.568;2022-10-22T12:35:27;101138.00;;;9.10
73937;BMP180;59249;59.736;30.568;2022-10-22T12:38:01;101135.00;;;9.10
73937;BMP180;59249;59.736;30.568;2022-10-22T12:40:33;101135.00;;;9.00
73937;BMP180;59249;59.736;30.568;2022-10-22T12:43:09;101131.00;;;9.10
73937;BMP180;59249;59.736;30.568;2022-10-22T12:45:41;101123.00;;;9.00
73937;BMP180;59249;59.736;30.568;2022-10-22T12:48:15;101125.00;;;9.10
73937;BMP180;59249;59.736;30.568;2022-10-22T12:50:50;101116.00;;;9.10
73937;BMP180;59249;59.736;30.568;2022-10-22T12:53:25;101112.00;;;9.00
73937;BMP180;59249;59.736;30.568;2022-10-22T12:56:02;101114.00;;;9.10
73937;BMP180;59249;59.736;30.568;2022-10-22T12:58:37;101113.00;;;9.10
73937;BMP180;59249;59.736;30.568;2022-10-22T13:01:09;101104.00;;;9.10
73937;BMP180;59249;59.736;30.568;2022-10-22T13:03:41;101107.00;;;9.10
73937;BMP180;59249;59.736;30.568;2022-10-22T13:06:19;101103.00;;;9.00
73937;BMP180;59249;59.736;30.568;2022-10-22T13:09:04;101099.00;;;9.00
73937;BMP180;59249;59.736;30.568;2022-10-22T13:11:47;101092.00;;;8.90
73937;BMP180;59249;59.736;30.568;2022-10-22T13:14:20;101099.00;;;9.00
73937;BMP180;59249;59.736;30.568;2022-10-22T13:17:09;101092.00;;;8.90
73937;BMP180;59249;59.736;30.568;2022-10-22T13:19:49;101093.00;;;8.90
73937;BMP180;59249;59.736;30.568;2022-10-22T13:22:32;101086.00;;;8.90
73937;BMP180;59249;59.736;30.568;2022-10-22T13:25:19;101078.00;;;8.80
73937;BMP180;59249;59.736;30.568;2022-10-22T13:27:52;101082.00;;;8.80
73937;BMP180;59249;59.736;30.568;2022-10-22T13:30:24;101084.00;;;8.80
73937;BMP180;59249;59.736;30.568;2022-10-22T13:32:55;101069.00;;;8.90
73937;BMP180;59249;59.736;30.568;2022-10-22T13:35:28;101076.00;;;8.80
73937;BMP180;59249;59.736;30.568;2022-10-22T13:37:59;101070.00;;;8.80
73937;BMP180;59249;59.736;30.568;2022-10-22T13:40:29;101073.00;;;8.80
73937;BMP180;59249;59.736;30.568;2022-10-22T13:42:58;101065.00;;;8.80
73937;BMP180;59249;59.736;30.568;2022-10-22T13:45:27;101068.00;;;8.80
73937;BMP180;59249;59.736;30.568;2022-10-22T13:47:56;101060.00;;;8.70
73937;BMP180;59249;59.736;30.568;2022-10-22T13:50:24;101057.00;;;8.70
73937;BMP180;59249;59.736;30.568;2022-10-22T13:52:56;101054.00;;;8.70
73937;BMP180;59249;59.736;30.568;2022-10-22T13:55:27;101068.00;;;8.60
73937;BMP180;59249;59.736;30.568;2022-10-22T13:58:02;101056.00;;;8.60
73937;BMP180;59249;59.736;30.568;2022-10-22T14:00:37;101060.00;;;8.60
73937;BMP180;59249;59.736;30.568;2022-10-22T14:03:09;101059.00;;;8.60
73937;BMP180;59249;59.736;30.568;2022-10-22T14:05:40;101058.00;;;8.60
73937;BMP180;59249;59.736;30.568;2022-10-22T14:08:10;101054.00;;;8.50
73937;BMP180;59249;59.736;30.568;2022-10-22T14:10:42;101050.00;;;8.50
73937;BMP180;59249;59.736;30.568;2022-10-22T14:13:11;101050.00;;;8.40
73937;BMP180;59249;59.736;30.568;2022-10-22T14:15:41;101050.00;;;8.40
73937;BMP180;59249;59.736;30.568;2022-10-22T14:18:14;101039.00;;;8.40
73937;BMP180;59249;59.736;30.568;2022-10-22T14:20:51;101045.00;;;8.30
73937;BMP180;59249;59.736;30.568;2022-10-22T14:23:24;101037.00;;;8.30
73937;BMP180;59249;59.736;30.568;2022-10-22T14:25:57;101040.00;;;8.30
73937;BMP180;59249;59.736;30.568;2022-10-22T14:28:27;101045.00;;;8.40
73937;BMP180;59249;59.736;30.568;2022-10-22T14:31:03;101040.00;;;8.30
73937;BMP180;59249;59.736;30.568;2022-10-22T14:33:32;101037.00;;;8.30
73937;BMP180;59249;59.736;30.568;2022-10-22T14:36:01;101037.00;;;8.30
73937;BMP180;59249;59.736;30.568;2022-10-22T14:38:30;101037.00;;;8.30